Albert Lea, MN

4:09 AM CDT on May 27, 2015 (GMT -0500)
Albert Lea Municipal | | Change Station
CLOSE
Current Station
Airport
Location: Albert Lea,
Elevation: 1257 ft
Nearby Weather Stations

Elev 1257 ft 43.68 °N, 93.37 °W | Updated 37 minutes ago

Overcast
Overcast
57 °F
Feels Like 57 °F
N
4
Wind Variable Wind from West

Today
High -- | Low -- °F
--% Chance of Precip.
Yesterday
High -- | Low -- °F
Precip. -- in
5:37 AM 8:43 PM
Waxing Gibbous, 65% visible
Pressure 29.88 in
Visibility 5.0 miles
Clouds Overcast 500 ft
Dew Point 57 °F
Humidity 100%
Rainfall 0.02 in
Snow Depth Not available.
UV 0 out of 12
Pollen 1.10 out of 12
Air Quality Not available.
Flu Activity Sporadic
METAR KAEL 270832Z AUTO 28003KT 5SM BR OVC005 14/14 A2988 RMK AO2

More Conditions Fewer Conditions

Pressure 29.88 in
Visibility 5.0 miles
Clouds Overcast 500 ft
Dew Point 57 °F
Humidity 100%
Rainfall 0.02 in
Snow Depth Not available.
UV 0 out of 12
Pollen 1.10 out of 12
Air Quality Not available.
Flu Activity Sporadic
METAR KAEL 270832Z AUTO 28003KT 5SM BR OVC005 14/14 A2988 RMK AO2

More Conditions Fewer Conditions

10-Day Weather Forecast

Almanac

Astronomy

May. 27, 2015 Rise Set
Actual Time
Civil Twilight
Nautical Twilight
Astronomical Twilight
Moon
Length of Visible Light
Length of Day
Tomorrow will be .
, % of the Moon is Illuminated

Today's Extremes

State Highs State Lows

Community

WunderPhotos

Upload Photos

1,824,634 photos uploaded!

WunderBlogs® & News

Nearby

Air Quality

  Air Quality AQ Index Pollutant
Not available.

Snow Depth

Station Depth Elevation

Earthquake Activity

City Distance Mag. Time & Date
Minimum magnitude displayed is 2.5.

Coastal Water Temperatures

Place Temperature

Stations

Nearby Weather Stations

Station Location Temp. Windchill Dew Point Humidity Wind Precip. Elev Updated Type